createdAt,value
2022-12-19T00:00:49.418Z,-4.04
2022-12-19T00:03:17.993Z,-4.07
2022-12-19T00:05:46.327Z,-4.07
2022-12-19T00:08:19.214Z,-4.08
2022-12-19T00:11:02.144Z,-4.09
2022-12-19T00:13:32.992Z,-4.15
2022-12-19T00:16:20.324Z,-4.05
2022-12-19T00:18:49.741Z,-4.10
2022-12-19T00:21:21.455Z,-4.08
2022-12-19T00:23:50.630Z,-4.00
2022-12-19T00:26:30.039Z,-3.97
2022-12-19T00:29:01.329Z,-3.92
2022-12-19T00:31:33.503Z,-4.06
2022-12-19T00:34:02.219Z,-4.19
2022-12-19T00:36:33.031Z,-4.23
2022-12-19T00:39:08.292Z,-4.06
2022-12-19T00:41:42.068Z,-4.03
2022-12-19T00:44:12.847Z,-4.12
2022-12-19T00:46:42.689Z,-4.06
2022-12-19T00:49:15.539Z,-4.06
2022-12-19T00:51:44.092Z,-4.05
2022-12-19T00:54:12.166Z,-4.00
2022-12-19T00:56:41.402Z,-4.08
2022-12-19T00:59:10.659Z,-4.07
2022-12-19T01:01:41.677Z,-3.98
2022-12-19T01:04:32.441Z,-3.92
2022-12-19T01:07:03.290Z,-3.94
2022-12-19T01:09:35.181Z,-4.04
2022-12-19T01:12:24.702Z,-4.11
2022-12-19T01:14:57.139Z,-4.07
2022-12-19T01:17:38.698Z,-4.04
2022-12-19T01:20:17.574Z,-4.02
2022-12-19T01:22:47.982Z,-4.12
2022-12-19T01:25:16.430Z,-4.03
2022-12-19T01:27:44.732Z,-3.93
2022-12-19T01:30:13.248Z,-3.95
2022-12-19T01:32:42.375Z,-3.86
2022-12-19T01:35:20.661Z,-3.86
2022-12-19T01:37:51.845Z,-4.04
2022-12-19T01:40:37.061Z,-4.02
2022-12-19T01:43:06.697Z,-3.99
2022-12-19T01:45:42.187Z,-3.90
2022-12-19T01:48:22.134Z,-3.97
2022-12-19T01:51:14.286Z,-3.88
2022-12-19T01:53:53.253Z,-3.81
2022-12-19T01:56:28.078Z,-3.77
2022-12-19T01:59:06.591Z,-3.73
2022-12-19T02:01:49.542Z,-3.62
2022-12-19T02:04:27.081Z,-3.63
2022-12-19T02:06:59.865Z,-3.71
2022-12-19T02:09:37.365Z,-3.76
2022-12-19T02:12:06.535Z,-3.83
2022-12-19T02:14:37.929Z,-3.86
2022-12-19T02:18:03.250Z,-3.70
2022-12-19T02:21:18.576Z,-3.81
2022-12-19T02:23:55.686Z,-3.76
2022-12-19T02:26:43.274Z,-3.50
2022-12-19T02:29:38.593Z,-3.61
2022-12-19T02:32:26.529Z,-3.62
2022-12-19T02:35:15.613Z,-3.62
2022-12-19T02:37:49.845Z,-3.55
2022-12-19T02:40:27.052Z,-3.56
2022-12-19T02:43:00.084Z,-3.56
2022-12-19T02:45:35.124Z,-3.55
2022-12-19T02:48:08.825Z,-3.47
2022-12-19T02:50:43.622Z,-3.46
2022-12-19T02:53:15.216Z,-3.51
2022-12-19T02:55:51.628Z,-3.45
2022-12-19T02:58:49.999Z,-3.47
2022-12-19T03:01:36.420Z,-3.38
2022-12-19T03:04:27.899Z,-3.50
2022-12-19T03:07:13.138Z,-3.49
2022-12-19T03:09:49.596Z,-3.47
2022-12-19T03:12:47.238Z,-3.37
2022-12-19T03:15:16.216Z,-3.36
2022-12-19T03:17:44.344Z,-3.42
2022-12-19T03:20:34.135Z,-3.42
2022-12-19T03:23:02.515Z,-3.39
2022-12-19T03:25:32.029Z,-3.37
2022-12-19T03:28:06.116Z,-3.27
2022-12-19T03:30:36.221Z,-3.39
2022-12-19T03:33:04.781Z,-3.43
2022-12-19T03:35:35.878Z,-3.35
2022-12-19T03:38:06.102Z,-3.29
2022-12-19T03:40:40.181Z,-3.21
2022-12-19T03:43:11.272Z,-3.21
2022-12-19T03:45:58.098Z,-3.18
2022-12-19T03:48:44.465Z,-3.11
2022-12-19T03:51:37.099Z,-3.23
2022-12-19T03:54:40.963Z,-3.25
2022-12-19T03:57:20.122Z,-3.22
2022-12-19T03:59:55.111Z,-3.18
2022-12-19T04:02:24.368Z,-3.11
2022-12-19T04:04:58.696Z,-3.00
2022-12-19T04:07:27.944Z,-2.99
2022-12-19T04:09:59.052Z,-3.01
2022-12-19T04:12:33.454Z,-3.09
2022-12-19T04:15:02.136Z,-2.96
2022-12-19T04:17:53.674Z,-2.93
2022-12-19T04:20:25.464Z,-2.87
2022-12-19T04:22:59.841Z,-2.75
2022-12-19T04:25:50.490Z,-2.80
2022-12-19T04:28:31.752Z,-2.71
2022-12-19T04:31:01.476Z,-2.70
2022-12-19T04:33:29.741Z,-2.68
2022-12-19T04:35:58.008Z,-2.57
2022-12-19T04:38:27.411Z,-2.54
2022-12-19T04:40:56.701Z,-2.57
2022-12-19T04:43:25.378Z,-2.51
2022-12-19T04:45:57.297Z,-2.55
2022-12-19T04:48:26.390Z,-2.63
2022-12-19T04:50:55.716Z,-2.61
2022-12-19T04:53:23.875Z,-2.61
2022-12-19T04:56:01.238Z,-2.51
2022-12-19T04:58:29.763Z,-2.48
2022-12-19T05:01:06.065Z,-2.49
2022-12-19T05:03:36.271Z,-2.43
2022-12-19T05:06:12.897Z,-2.47
2022-12-19T05:08:43.132Z,-2.46
2022-12-19T05:11:19.504Z,-2.46
2022-12-19T05:13:50.130Z,-2.43
2022-12-19T05:16:18.815Z,-2.43
2022-12-19T05:18:47.223Z,-2.46
2022-12-19T05:21:15.642Z,-2.50
2022-12-19T05:23:44.199Z,-2.44
2022-12-19T05:26:12.680Z,-2.42
2022-12-19T05:28:41.163Z,-2.39
2022-12-19T05:31:12.971Z,-2.42
2022-12-19T05:33:42.339Z,-2.50
2022-12-19T05:36:11.891Z,-2.41
2022-12-19T05:38:40.133Z,-2.39
2022-12-19T05:41:09.357Z,-2.42
2022-12-19T05:43:37.590Z,-2.40
2022-12-19T05:46:07.310Z,-2.34
2022-12-19T05:48:36.439Z,-2.43
2022-12-19T05:51:04.777Z,-2.32
2022-12-19T05:53:36.028Z,-2.31
2022-12-19T05:56:13.258Z,-2.23
2022-12-19T05:58:43.145Z,-2.35
2022-12-19T06:01:18.258Z,-2.30
2022-12-19T06:03:47.406Z,-2.26
2022-12-19T06:06:17.944Z,-2.27
2022-12-19T06:08:46.485Z,-2.21
2022-12-19T06:11:14.969Z,-2.18
2022-12-19T06:13:43.065Z,-2.19
2022-12-19T06:16:14.880Z,-2.21
2022-12-19T06:18:45.488Z,-2.22
2022-12-19T06:21:24.898Z,-2.20
2022-12-19T06:23:53.308Z,-2.18
2022-12-19T06:26:22.652Z,-2.15
2022-12-19T06:28:53.321Z,-2.09
2022-12-19T06:31:23.211Z,-2.13
2022-12-19T06:33:52.283Z,-2.14
2022-12-19T06:36:26.727Z,-2.17
2022-12-19T06:38:57.987Z,-2.06
2022-12-19T06:41:46.205Z,-2.02
2022-12-19T06:44:16.309Z,-1.99
2022-12-19T06:46:44.587Z,-1.96
2022-12-19T06:49:13.636Z,-2.06
2022-12-19T06:51:42.839Z,-2.01
2022-12-19T06:54:15.157Z,-2.00
2022-12-19T06:56:44.585Z,-2.02
2022-12-19T06:59:15.169Z,-1.98
2022-12-19T07:01:48.075Z,-1.99
2022-12-19T07:04:22.317Z,-1.97
2022-12-19T07:06:50.890Z,-1.91
2022-12-19T07:09:19.059Z,-1.91
2022-12-19T07:11:47.205Z,-1.91
2022-12-19T07:14:15.741Z,-1.91
2022-12-19T07:16:43.832Z,-1.92
2022-12-19T07:19:12.494Z,-1.89
2022-12-19T07:21:41.892Z,-1.96
2022-12-19T07:24:12.326Z,-1.89
2022-12-19T07:26:42.795Z,-1.98
2022-12-19T07:29:11.975Z,-1.90
2022-12-19T07:31:40.443Z,-1.88
2022-12-19T07:34:09.014Z,-1.86
2022-12-19T07:36:37.227Z,-1.90
2022-12-19T07:39:06.200Z,-1.88
2022-12-19T07:41:37.540Z,-1.90
2022-12-19T07:44:07.153Z,-1.83
2022-12-19T07:46:35.802Z,-1.88
2022-12-19T07:49:04.478Z,-1.90
2022-12-19T07:51:33.680Z,-1.85
2022-12-19T07:54:02.899Z,-1.81
2022-12-19T07:56:31.073Z,-1.80
2022-12-19T07:59:00.344Z,-1.88
2022-12-19T08:01:29.736Z,-1.86
2022-12-19T08:03:58.671Z,-1.85
2022-12-19T08:06:27.990Z,-1.89
2022-12-19T08:08:57.129Z,-2.02
2022-12-19T08:11:29.877Z,-2.02
2022-12-19T08:13:58.186Z,-2.09
2022-12-19T08:16:27.895Z,-2.15
2022-12-19T08:18:56.140Z,-2.13
2022-12-19T08:21:25.296Z,-2.04
2022-12-19T08:23:54.229Z,-2.19
2022-12-19T08:26:30.058Z,-2.16
2022-12-19T08:29:01.221Z,-2.29
2022-12-19T08:31:29.609Z,-2.31
2022-12-19T08:33:58.326Z,-2.30
2022-12-19T08:36:27.020Z,-2.13
2022-12-19T08:38:55.266Z,-1.97
2022-12-19T08:41:23.995Z,-1.86
2022-12-19T08:43:53.908Z,-1.77
2022-12-19T08:46:23.001Z,-1.85
2022-12-19T08:48:51.234Z,-1.82
2022-12-19T08:51:20.335Z,-1.74
2022-12-19T08:53:48.874Z,-1.69
2022-12-19T08:56:20.119Z,-1.61
2022-12-19T08:58:50.817Z,-1.60
2022-12-19T09:01:20.837Z,-1.46
2022-12-19T09:04:11.490Z,-1.47
2022-12-19T09:06:38.500Z,-1.51
2022-12-19T09:09:07.243Z,-1.37
2022-12-19T09:11:36.211Z,-1.40
2022-12-19T09:14:21.093Z,-1.35
2022-12-19T09:16:49.912Z,-1.25
2022-12-19T09:19:18.703Z,-1.44
2022-12-19T09:21:47.123Z,-1.32
2022-12-19T09:24:15.310Z,-1.33
2022-12-19T09:26:45.049Z,-1.30
2022-12-19T09:29:20.581Z,-1.45
2022-12-19T09:31:55.386Z,-1.58
2022-12-19T09:34:33.230Z,-1.83
2022-12-19T09:37:08.704Z,-1.55
2022-12-19T09:39:37.003Z,-1.65
2022-12-19T09:42:41.687Z,-1.73
2022-12-19T09:45:31.763Z,-1.66
2022-12-19T09:48:02.298Z,-1.85
2022-12-19T09:50:36.135Z,-1.74
2022-12-19T09:53:15.980Z,-1.64
2022-12-19T09:55:48.074Z,-1.57
2022-12-19T09:58:54.615Z,-1.47
2022-12-19T10:01:31.324Z,-1.38
2022-12-19T10:04:13.979Z,-1.20
2022-12-19T10:07:16.034Z,-1.05
2022-12-19T10:12:12.726Z,-1.27
2022-12-19T10:12:51.439Z,-1.19
2022-12-19T10:15:43.786Z,-1.23
2022-12-19T10:18:15.485Z,-1.16
2022-12-19T10:21:07.513Z,-0.96
2022-12-19T10:23:58.642Z,-1.18
2022-12-19T10:26:57.464Z,-1.03
2022-12-19T10:29:31.946Z,-1.10
2022-12-19T10:32:05.566Z,-1.11
2022-12-19T10:34:38.557Z,-1.08
2022-12-19T10:37:34.320Z,-1.21
2022-12-19T10:40:05.685Z,-0.93
2022-12-19T10:42:51.200Z,-1.08
2022-12-19T10:45:22.084Z,-1.06
2022-12-19T10:47:57.619Z,-1.20
2022-12-19T10:50:28.430Z,-1.12
2022-12-19T10:53:11.437Z,-1.12
2022-12-19T10:55:39.556Z,-1.04
2022-12-19T10:58:23.260Z,-1.00
2022-12-19T11:01:24.992Z,-1.00
2022-12-19T11:04:15.768Z,-1.03
2022-12-19T11:06:54.478Z,-0.79
2022-12-19T11:09:27.776Z,-0.90
2022-12-19T11:15:19.954Z,-1.08
2022-12-19T11:17:43.661Z,-0.95
2022-12-19T11:28:36.040Z,-1.05
2022-12-19T11:29:31.406Z,-0.78
2022-12-19T11:29:42.226Z,-0.78
2022-12-19T11:30:08.453Z,-0.63
2022-12-19T11:32:46.730Z,-0.65
2022-12-19T11:35:17.991Z,-0.95
2022-12-19T11:38:06.817Z,-0.80
2022-12-19T11:40:49.793Z,-0.74
2022-12-19T11:46:09.740Z,-0.50
2022-12-19T11:48:48.051Z,-0.50
2022-12-19T11:51:40.231Z,-0.53
2022-12-19T11:54:25.382Z,-0.62
2022-12-19T11:56:53.528Z,-0.73
2022-12-19T11:59:29.648Z,-0.94
2022-12-19T12:02:16.443Z,-0.73
2022-12-19T12:05:24.839Z,-0.65
2022-12-19T12:09:05.383Z,-0.66
2022-12-19T12:16:37.487Z,-0.60
2022-12-19T12:23:49.298Z,-0.58
2022-12-19T12:31:04.009Z,-0.53
2022-12-19T12:31:17.060Z,-0.55
2022-12-19T12:31:43.268Z,-0.52
2022-12-19T12:31:48.868Z,-0.80
2022-12-19T12:31:53.068Z,-0.69
2022-12-19T12:35:56.479Z,-0.64
2022-12-19T12:39:36.177Z,-0.81
2022-12-19T12:42:25.748Z,-0.77
2022-12-19T12:44:57.885Z,-0.75
2022-12-19T12:47:28.020Z,-0.73
2022-12-19T12:50:01.201Z,-0.83
2022-12-19T12:52:42.117Z,-1.05
2022-12-19T12:55:24.064Z,-0.94
2022-12-19T12:57:52.923Z,-0.86
2022-12-19T13:00:28.155Z,-1.01
2022-12-19T13:03:11.254Z,-1.12
2022-12-19T13:06:03.314Z,-1.09
2022-12-19T13:08:38.843Z,-1.11
2022-12-19T13:11:50.649Z,-1.06
2022-12-19T13:14:34.537Z,-1.09
2022-12-19T13:17:03.928Z,-1.08
2022-12-19T13:19:34.767Z,-1.04
2022-12-19T13:22:09.117Z,-0.93
2022-12-19T13:24:40.272Z,-1.08
2022-12-19T13:27:20.570Z,-1.05
2022-12-19T13:30:01.398Z,-1.00
2022-12-19T13:32:41.798Z,-1.24
2022-12-19T13:35:50.738Z,-1.08
2022-12-19T13:39:54.777Z,-1.05
2022-12-19T13:41:46.731Z,-1.00
2022-12-19T13:44:20.857Z,-1.23
2022-12-19T13:46:49.896Z,-1.17
2022-12-19T13:49:34.196Z,-1.24
2022-12-19T13:52:04.541Z,-1.32
2022-12-19T13:54:44.759Z,-1.39
2022-12-19T13:57:31.258Z,-1.45
2022-12-19T14:00:04.249Z,-1.24
2022-12-19T14:02:46.240Z,-1.20
2022-12-19T14:05:36.015Z,-1.40
2022-12-19T14:08:23.697Z,-1.41
2022-12-19T14:11:34.865Z,-1.44
2022-12-19T14:14:18.947Z,-1.40
2022-12-19T14:16:51.904Z,-1.41
2022-12-19T14:19:26.013Z,-1.58
2022-12-19T14:22:25.910Z,-1.54
2022-12-19T14:25:10.095Z,-1.48
2022-12-19T14:28:19.381Z,-1.67
2022-12-19T14:30:43.623Z,-1.62
2022-12-19T14:33:45.282Z,-1.59
2022-12-19T14:36:14.639Z,-1.46
2022-12-19T14:39:19.586Z,-1.43
2022-12-19T14:42:09.245Z,-1.45
2022-12-19T14:52:51.858Z,-1.42
2022-12-19T14:54:05.135Z,-1.39
2022-12-19T14:54:07.297Z,-1.52
2022-12-19T14:54:30.494Z,-1.51
2022-12-19T14:59:05.363Z,-1.51
2022-12-19T15:01:35.425Z,-1.55
2022-12-19T15:04:52.258Z,-1.56
2022-12-19T15:07:12.319Z,-1.52
2022-12-19T15:11:01.040Z,-1.55
2022-12-19T15:14:51.838Z,-1.59
2022-12-19T15:15:50.800Z,-1.55
2022-12-19T15:18:24.200Z,-1.57
2022-12-19T15:20:55.909Z,-1.58
2022-12-19T15:23:24.935Z,-1.66
2022-12-19T15:26:04.123Z,-1.65
2022-12-19T15:28:51.794Z,-1.58
2022-12-19T15:31:34.629Z,-1.60
2022-12-19T15:34:36.227Z,-1.60
2022-12-19T15:37:06.410Z,-1.78
2022-12-19T15:39:34.907Z,-1.71
2022-12-19T15:42:04.190Z,-1.65
2022-12-19T15:44:38.506Z,-1.63
2022-12-19T15:47:16.923Z,-1.68
2022-12-19T15:49:45.986Z,-1.71
2022-12-19T15:52:19.591Z,-1.64
2022-12-19T15:54:50.126Z,-1.68
2022-12-19T15:57:31.078Z,-1.77
2022-12-19T16:00:05.318Z,-1.62
2022-12-19T16:03:20.464Z,-1.63
2022-12-19T16:05:24.593Z,-1.70
2022-12-19T16:07:53.103Z,-1.69
2022-12-19T16:10:22.006Z,-1.82
2022-12-19T16:12:55.465Z,-1.75
2022-12-19T16:15:34.079Z,-1.77
2022-12-19T16:18:03.651Z,-1.86
2022-12-19T16:20:36.439Z,-1.90
2022-12-19T16:23:05.257Z,-1.85
2022-12-19T16:25:39.644Z,-1.96
2022-12-19T16:28:17.465Z,-1.86
2022-12-19T16:30:46.716Z,-1.89
2022-12-19T16:33:31.891Z,-1.91
2022-12-19T16:36:05.314Z,-1.82
2022-12-19T16:38:35.058Z,-1.90
2022-12-19T16:41:03.673Z,-1.88
2022-12-19T16:43:37.602Z,-1.86
2022-12-19T16:46:07.605Z,-1.88
2022-12-19T16:48:36.045Z,-1.91
2022-12-19T16:51:04.573Z,-1.92
2022-12-19T16:53:33.256Z,-1.91
2022-12-19T16:56:01.687Z,-1.84
2022-12-19T16:58:30.185Z,-1.78
2022-12-19T17:00:58.862Z,-1.96
2022-12-19T17:03:41.588Z,-1.88
2022-12-19T17:06:15.261Z,-1.92
2022-12-19T17:08:44.141Z,-1.88
2022-12-19T17:11:25.248Z,-1.82
2022-12-19T17:14:00.684Z,-1.82
2022-12-19T17:16:31.049Z,-1.90
2022-12-19T17:18:59.798Z,-1.96
2022-12-19T17:21:27.917Z,-1.90
2022-12-19T17:23:56.457Z,-1.90
2022-12-19T17:26:24.598Z,-1.88
2022-12-19T17:28:52.819Z,-1.97
2022-12-19T17:31:25.956Z,-1.86
2022-12-19T17:33:58.287Z,-1.97
2022-12-19T17:36:36.704Z,-1.91
2022-12-19T17:39:33.640Z,-1.88
2022-12-19T17:42:14.040Z,-1.87
2022-12-19T17:44:42.142Z,-1.82
2022-12-19T17:47:16.732Z,-1.82
2022-12-19T17:49:45.922Z,-1.76
2022-12-19T17:52:16.484Z,-1.77
2022-12-19T17:54:45.039Z,-1.79
2022-12-19T17:57:18.117Z,-1.80
2022-12-19T17:59:46.864Z,-1.82
2022-12-19T18:02:23.930Z,-1.83
2022-12-19T18:04:52.801Z,-1.88
2022-12-19T18:07:21.310Z,-1.83
2022-12-19T18:09:49.624Z,-1.88
2022-12-19T18:12:18.045Z,-1.81
2022-12-19T18:14:46.048Z,-1.75
2022-12-19T18:17:21.853Z,-1.78
2022-12-19T18:19:50.235Z,-1.85
2022-12-19T18:22:18.608Z,-1.99
2022-12-19T18:24:47.070Z,-1.94
2022-12-19T18:27:15.398Z,-1.83
2022-12-19T18:29:43.576Z,-1.83
2022-12-19T18:32:20.580Z,-1.79
2022-12-19T18:34:49.041Z,-1.75
2022-12-19T18:37:17.355Z,-1.74
2022-12-19T18:39:45.547Z,-1.73
2022-12-19T18:42:20.038Z,-1.78
2022-12-19T18:44:48.630Z,-1.76
2022-12-19T18:47:23.377Z,-1.79
2022-12-19T18:49:52.460Z,-1.77
2022-12-19T18:52:20.920Z,-1.79
2022-12-19T18:54:49.027Z,-1.77
2022-12-19T18:57:17.299Z,-1.76
2022-12-19T18:59:45.844Z,-1.83
2022-12-19T19:02:25.763Z,-1.79
2022-12-19T19:04:55.835Z,-1.75
2022-12-19T19:07:24.239Z,-1.78
2022-12-19T19:09:52.600Z,-1.81
2022-12-19T19:12:23.879Z,-1.85
2022-12-19T19:14:52.793Z,-1.86
2022-12-19T19:17:28.325Z,-1.79
2022-12-19T19:19:56.880Z,-1.75
2022-12-19T19:22:25.367Z,-1.73
2022-12-19T19:24:53.704Z,-1.74
2022-12-19T19:27:22.469Z,-1.71
2022-12-19T19:29:50.905Z,-1.81
2022-12-19T19:32:19.704Z,-1.75
2022-12-19T19:34:49.292Z,-1.83
2022-12-19T19:37:18.071Z,-1.91
2022-12-19T19:39:46.490Z,-1.85
2022-12-19T19:42:15.280Z,-1.77
2022-12-19T19:44:43.530Z,-1.89
2022-12-19T19:47:12.447Z,-1.81
2022-12-19T19:49:41.552Z,-1.81
2022-12-19T19:52:09.700Z,-1.84
2022-12-19T19:54:38.445Z,-1.89
2022-12-19T19:57:08.286Z,-1.83
2022-12-19T19:59:36.362Z,-1.76
2022-12-19T20:02:05.669Z,-1.90
2022-12-19T20:04:36.250Z,-1.95
2022-12-19T20:07:05.378Z,-1.69
2022-12-19T20:09:34.821Z,-1.96
2022-12-19T20:12:02.955Z,-1.89
2022-12-19T20:14:31.059Z,-1.83
2022-12-19T20:16:59.687Z,-1.79
2022-12-19T20:19:28.029Z,-1.85
2022-12-19T20:21:56.824Z,-1.68
2022-12-19T20:24:25.497Z,-1.71
2022-12-19T20:26:53.793Z,-1.86
2022-12-19T20:29:21.903Z,-1.78
2022-12-19T20:31:50.679Z,-1.81
2022-12-19T20:34:20.123Z,-1.80
2022-12-19T20:36:48.504Z,-1.84
2022-12-19T20:39:22.357Z,-1.81
2022-12-19T20:41:51.989Z,-1.71
2022-12-19T20:44:24.432Z,-1.79
2022-12-19T20:46:53.211Z,-1.79
2022-12-19T20:49:23.789Z,-1.84
2022-12-19T20:51:51.858Z,-2.01
2022-12-19T20:54:20.947Z,-1.86
2022-12-19T20:56:49.345Z,-1.80
2022-12-19T20:59:19.356Z,-1.81
2022-12-19T21:01:47.852Z,-1.84
2022-12-19T21:04:16.703Z,-1.86
2022-12-19T21:06:45.086Z,-1.83
2022-12-19T21:09:13.242Z,-1.85
2022-12-19T21:11:41.695Z,-1.99
2022-12-19T21:14:11.573Z,-1.89
2022-12-19T21:16:41.698Z,-1.83
2022-12-19T21:19:10.254Z,-1.83
2022-12-19T21:21:38.680Z,-1.90
2022-12-19T21:24:07.296Z,-1.90
2022-12-19T21:26:35.938Z,-1.89
2022-12-19T21:29:05.053Z,-1.90
2022-12-19T21:31:33.369Z,-1.99
2022-12-19T21:34:02.529Z,-1.95
2022-12-19T21:36:31.490Z,-1.96
2022-12-19T21:39:02.640Z,-1.88
2022-12-19T21:41:32.185Z,-1.89
2022-12-19T21:44:00.804Z,-1.76
2022-12-19T21:46:33.243Z,-1.84
2022-12-19T21:49:03.311Z,-1.84
2022-12-19T21:51:32.161Z,-1.76
2022-12-19T21:54:02.847Z,-1.85
2022-12-19T21:56:38.991Z,-1.83
2022-12-19T21:59:13.193Z,-1.76
2022-12-19T22:01:43.161Z,-1.73
2022-12-19T22:04:15.278Z,-1.84
2022-12-19T22:06:43.675Z,-1.77
2022-12-19T22:09:17.779Z,-1.82
2022-12-19T22:11:46.514Z,-1.90
2022-12-19T22:14:16.046Z,-1.89
2022-12-19T22:16:44.782Z,-1.91
2022-12-19T22:19:18.216Z,-1.91
2022-12-19T22:21:47.978Z,-1.82
2022-12-19T22:24:17.386Z,-1.86
2022-12-19T22:26:45.789Z,-1.97
2022-12-19T22:29:17.789Z,-1.97
2022-12-19T22:31:47.128Z,-1.93
2022-12-19T22:34:18.791Z,-1.97
2022-12-19T22:36:47.924Z,-1.92
2022-12-19T22:39:18.586Z,-1.97
2022-12-19T22:41:47.364Z,-1.95
2022-12-19T22:44:21.240Z,-1.89
2022-12-19T22:46:50.409Z,-1.95
2022-12-19T22:49:18.697Z,-1.97
2022-12-19T22:51:47.545Z,-1.95
2022-12-19T22:54:16.195Z,-2.02
2022-12-19T22:56:44.274Z,-2.02
2022-12-19T22:59:12.890Z,-1.94
2022-12-19T23:01:43.625Z,-1.88
2022-12-19T23:04:14.879Z,-1.88
2022-12-19T23:06:43.814Z,-1.95
2022-12-19T23:09:16.289Z,-1.89
2022-12-19T23:11:48.072Z,-1.85
2022-12-19T23:14:18.582Z,-1.95
2022-12-19T23:16:47.737Z,-2.01
2022-12-19T23:19:17.081Z,-1.94
2022-12-19T23:21:45.820Z,-1.84
2022-12-19T23:24:14.748Z,-1.94
2022-12-19T23:26:42.819Z,-1.99
2022-12-19T23:29:14.201Z,-1.94
2022-12-19T23:31:45.979Z,-1.90
2022-12-19T23:34:16.243Z,-1.87
2022-12-19T23:39:33.942Z,-1.89
2022-12-19T23:42:02.302Z,-1.98
2022-12-19T23:44:30.721Z,-1.88
2022-12-19T23:47:02.905Z,-1.87
2022-12-19T23:49:33.820Z,-1.96
2022-12-19T23:52:02.329Z,-2.02
2022-12-19T23:54:30.660Z,-1.96
2022-12-19T23:56:59.016Z,-1.90
2022-12-19T23:59:27.205Z,-1.88
